Time;durP1;ratioP1;P1;durP2;ratioP2;P2;SDS_P1;SDS_P2;PMS_P1;PMS_P2;Temp;Humidity;BMP_temperature;BMP_pressure;BME280_temperature;BME280_humidity;BME280_pressure;Samples;Min_cycle;Max_cycle;Signal;HPM_P1;HPM_P2
2022/03/19 00:02:23;;;;;;;14.00;1.20;;;;;;;2.65;53.08;104775.28;5038924;28;20111;-80
2022/03/19 00:04:48;;;;;;;13.85;1.17;;;;;;;2.62;52.88;104765.63;5024806;28;20128;-80
2022/03/19 00:07:14;;;;;;;10.60;2.00;;;;;;;2.60;53.07;104767.25;5022655;28;20037;-80
2022/03/19 00:09:41;;;;;;;8.02;0.50;;;;;;;2.52;53.46;104758.19;5040037;28;20090;-79
2022/03/19 00:12:08;;;;;;;9.98;1.35;;;;;;;2.47;53.63;104769.97;5022035;28;20067;-79
2022/03/19 00:14:33;;;;;;;5.55;1.90;;;;;;;2.53;53.34;104765.13;5044392;28;20102;-80
2022/03/19 00:16:59;;;;;;;10.43;1.40;;;;;;;2.55;53.26;104771.25;5022960;28;20041;-79
2022/03/19 00:19:25;;;;;;;4.35;1.02;;;;;;;2.55;53.18;104774.75;5044200;28;20122;-80
2022/03/19 00:21:51;;;;;;;8.27;1.85;;;;;;;2.56;53.70;104771.34;5020830;28;20091;-79
2022/03/19 00:24:16;;;;;;;10.73;1.00;;;;;;;2.56;53.62;104770.47;5025811;28;20625;-78
2022/03/19 00:26:42;;;;;;;6.65;1.05;;;;;;;2.55;53.64;104777.34;5039827;28;20048;-77
2022/03/19 00:29:08;;;;;;;9.88;1.10;;;;;;;2.46;53.58;104779.38;5043725;28;20139;-80
2022/03/19 00:31:34;;;;;;;10.48;2.15;;;;;;;2.49;53.37;104774.41;5024174;28;20581;-80
2022/03/19 00:33:59;;;;;;;9.90;1.63;;;;;;;2.45;53.46;104776.72;5003638;28;20499;-79
2022/03/19 00:36:25;;;;;;;7.53;0.90;;;;;;;2.40;53.49;104778.13;5039657;28;20033;-79
2022/03/19 00:38:51;;;;;;;12.38;1.85;;;;;;;2.38;53.89;104783.25;5036123;28;20049;-77
2022/03/19 00:41:16;;;;;;;4.38;0.98;;;;;;;2.42;53.75;104781.69;5024380;28;20036;-80
2022/03/19 00:43:42;;;;;;;8.05;0.90;;;;;;;2.47;53.45;104777.72;5023906;28;20056;-79
2022/03/19 00:46:07;;;;;;;8.75;1.38;;;;;;;2.46;53.47;104778.50;5038774;28;20028;-79
2022/03/19 00:48:33;;;;;;;9.88;1.58;;;;;;;2.41;53.50;104785.09;5041215;28;20045;-80
2022/03/19 00:50:58;;;;;;;7.47;1.38;;;;;;;2.38;53.16;104790.06;5037985;28;20033;-81
2022/03/19 00:53:24;;;;;;;12.32;2.10;;;;;;;2.30;53.44;104784.47;5038285;28;20150;-80
2022/03/19 00:55:49;;;;;;;8.07;1.77;;;;;;;2.24;53.24;104785.03;5042176;28;20111;-79
2022/03/19 00:58:15;;;;;;;6.30;1.20;;;;;;;2.06;53.56;104792.56;5042418;28;20265;-79
2022/03/19 01:00:40;;;;;;;16.50;1.90;;;;;;;2.12;53.76;104797.22;5021310;28;20130;-80
2022/03/19 01:03:06;;;;;;;11.45;2.85;;;;;;;2.21;53.46;104787.41;5042443;28;20727;-80
2022/03/19 01:05:31;;;;;;;7.20;2.13;;;;;;;2.26;53.03;104785.97;5021368;28;20282;-80
2022/03/19 01:07:57;;;;;;;9.43;2.28;;;;;;;2.21;52.73;104792.59;5021976;28;20049;-80
2022/03/19 01:10:25;;;;;;;7.63;1.95;;;;;;;2.14;53.04;104781.00;5021714;28;20032;-78
2022/03/19 01:12:53;;;;;;;3.28;1.98;;;;;;;2.16;52.95;104778.53;5024779;28;20052;-79
2022/03/19 01:15:19;;;;;;;9.05;3.40;;;;;;;2.00;53.57;104786.16;5021314;28;20083;-79
2022/03/19 01:17:45;;;;;;;16.98;3.35;;;;;;;2.00;53.40;104788.75;5021529;28;20049;-78
2022/03/19 01:20:12;;;;;;;12.95;3.75;;;;;;;2.03;53.32;104781.19;5039338;28;20029;-80
2022/03/19 01:22:40;;;;;;;10.07;3.55;;;;;;;2.05;53.22;104779.59;5039792;28;20052;-79
2022/03/19 01:25:07;;;;;;;6.05;2.72;;;;;;;2.08;52.84;104777.19;5022784;28;20314;-80
2022/03/19 01:27:34;;;;;;;5.10;2.78;;;;;;;2.01;52.92;104783.69;5037938;28;20157;-79
2022/03/19 01:30:00;;;;;;;7.53;3.33;;;;;;;1.90;53.01;104772.72;5023813;28;20040;-81
2022/03/19 01:32:26;;;;;;;8.70;3.38;;;;;;;1.84;52.96;104769.81;5017803;28;20098;-82
2022/03/19 01:34:51;;;;;;;5.72;3.08;;;;;;;1.80;52.93;104773.00;5020510;28;20724;-80
2022/03/19 01:37:17;;;;;;;9.73;3.33;;;;;;;1.75;53.03;104771.81;5042247;28;20036;-80
2022/03/19 01:39:42;;;;;;;9.82;3.92;;;;;;;1.53;53.38;104772.25;5020166;28;20037;-79
2022/03/19 01:42:08;;;;;;;6.10;3.67;;;;;;;1.55;53.50;104768.06;5020429;28;20040;-81
2022/03/19 01:44:33;;;;;;;13.73;5.82;;;;;;;1.62;53.76;104764.19;5025688;28;20029;-80
2022/03/19 01:47:04;;;;;;;14.13;4.65;;;;;;;1.56;53.55;104762.09;5025533;28;20039;-79
2022/03/19 01:49:30;;;;;;;8.45;3.88;;;;;;;1.64;53.46;104753.16;5022330;28;20083;-80
2022/03/19 01:51:57;;;;;;;10.07;4.32;;;;;;;1.63;53.49;104763.38;5020095;28;20502;-79
2022/03/19 01:54:29;;;;;;;10.80;4.75;;;;;;;1.62;53.62;104759.03;5036651;28;20494;-80
2022/03/19 01:56:55;;;;;;;13.07;4.88;;;;;;;1.68;53.23;104751.63;5036767;28;20032;-80
2022/03/19 01:59:23;;;;;;;9.73;4.15;;;;;;;1.50;53.36;104752.28;5041256;28;20298;-80
2022/03/19 02:01:50;;;;;;;11.25;4.32;;;;;;;1.36;53.71;104729.06;5035095;28;20025;-79
2022/03/19 02:04:18;;;;;;;12.88;4.53;;;;;;;1.59;53.73;104740.75;5020901;28;20534;-79
2022/03/19 02:06:45;;;;;;;11.07;4.38;;;;;;;1.49;53.63;104745.38;5039321;28;20477;-80
2022/03/19 02:09:11;;;;;;;11.98;4.90;;;;;;;1.38;53.86;104741.22;5023566;28;20597;-79
2022/03/19 02:11:37;;;;;;;10.48;4.20;;;;;;;1.39;54.06;104737.84;5024520;28;20044;-79
2022/03/19 02:14:03;;;;;;;15.43;4.80;;;;;;;1.49;54.10;104735.06;5035212;28;20061;-80
2022/03/19 02:16:29;;;;;;;7.68;4.35;;;;;;;1.37;54.45;104743.69;5026191;28;20429;-81
2022/03/19 02:18:57;;;;;;;6.15;3.67;;;;;;;1.46;53.62;104734.91;5035719;28;20053;-80
2022/03/19 02:21:22;;;;;;;9.77;4.30;;;;;;;1.40;53.98;104734.50;5038044;28;20064;-79
2022/03/19 02:26:45;;;;;;;14.90;5.28;;;;;;;1.35;53.62;104720.44;5023854;28;20123;-81
2022/03/19 02:29:11;;;;;;;9.95;3.92;;;;;;;1.24;53.77;104721.47;5036148;28;20068;-80
2022/03/19 02:31:40;;;;;;;9.32;4.82;;;;;;;1.20;53.69;104724.66;5041744;28;20474;-80
2022/03/19 02:34:10;;;;;;;5.47;3.33;;;;;;;1.20;53.53;104724.66;5035124;28;20055;-79
2022/03/19 02:36:36;;;;;;;7.45;4.47;;;;;;;1.02;53.42;104720.16;5037389;28;20033;-77
2022/03/19 02:39:25;;;;;;;8.32;4.18;;;;;;;0.94;54.01;104720.47;5019423;28;20637;-82
2022/03/19 02:41:52;;;;;;;10.43;4.05;;;;;;;0.95;54.11;104707.69;5019374;28;20041;-79
2022/03/19 02:44:19;;;;;;;11.45;3.83;;;;;;;1.04;53.86;104713.41;5024679;28;20511;-81
2022/03/19 02:46:44;;;;;;;17.25;4.57;;;;;;;1.11;53.76;104715.56;5036193;28;20098;-77
2022/03/19 02:49:11;;;;;;;6.93;3.65;;;;;;;1.13;53.83;104712.16;5040004;28;20052;-80
2022/03/19 02:51:37;;;;;;;10.73;4.35;;;;;;;1.06;53.93;104716.97;5023970;28;20620;-80
2022/03/19 02:54:04;;;;;;;12.80;4.90;;;;;;;1.03;53.93;104719.34;5019264;28;20052;-79
2022/03/19 02:56:36;;;;;;;12.45;4.97;;;;;;;1.10;53.91;104713.78;5023023;28;20060;-79
2022/03/19 02:59:12;;;;;;;6.30;3.58;;;;;;;0.96;53.38;104714.59;5013449;28;20049;-80
2022/03/19 03:01:41;;;;;;;12.43;3.95;;;;;;;0.79;53.30;104713.59;5036551;28;20053;-80
2022/03/19 03:04:07;;;;;;;12.98;3.40;;;;;;;0.73;53.62;104722.59;5016980;28;20529;-79
2022/03/19 03:06:41;;;;;;;10.95;4.35;;;;;;;0.65;53.56;104723.00;5020111;28;20041;-80
2022/03/19 03:09:08;;;;;;;8.82;4.15;;;;;;;0.59;53.82;104725.19;5038714;28;20103;-80
2022/03/19 03:11:36;;;;;;;13.68;4.03;;;;;;;0.56;53.57;104727.56;5040629;28;20040;-82
2022/03/19 03:14:02;;;;;;;9.48;4.25;;;;;;;0.53;53.91;104737.69;5018951;28;20044;-78
2022/03/19 03:16:29;;;;;;;12.88;4.35;;;;;;;0.56;53.86;104737.84;5041098;28;20390;-79
2022/03/19 03:18:56;;;;;;;17.08;4.10;;;;;;;0.45;53.62;104726.88;5024223;28;20446;-79
2022/03/19 03:21:23;;;;;;;13.10;4.43;;;;;;;0.55;53.67;104733.53;5024796;28;20055;-79
2022/03/19 03:23:49;;;;;;;9.68;3.78;;;;;;;0.60;53.82;104739.84;5021001;28;20056;-80
2022/03/19 03:26:14;;;;;;;8.77;3.70;;;;;;;0.67;54.02;104733.41;5024842;28;20108;-80
2022/03/19 03:28:40;;;;;;;10.80;4.32;;;;;;;0.69;53.95;104735.28;5044464;28;20132;-78
2022/03/19 03:31:06;;;;;;;8.68;4.80;;;;;;;0.60;54.24;104742.41;5045316;28;20032;-80
2022/03/19 03:33:32;;;;;;;7.35;4.63;;;;;;;0.68;54.39;104743.81;5021858;28;20136;-80
2022/03/19 03:35:57;;;;;;;8.20;3.83;;;;;;;0.75;54.19;104745.09;5002669;28;20035;-80
2022/03/19 03:38:23;;;;;;;7.28;4.78;;;;;;;0.68;53.74;104742.91;5026361;28;20136;-80
2022/03/19 03:40:48;;;;;;;9.02;4.03;;;;;;;0.60;53.80;104745.00;5027399;28;20040;-79
2022/03/19 03:43:14;;;;;;;10.90;4.63;;;;;;;0.53;53.45;104740.25;5041029;28;20224;-80
2022/03/19 03:45:39;;;;;;;10.48;3.25;;;;;;;0.33;53.85;104750.94;5019445;28;20418;-82
2022/03/19 03:48:05;;;;;;;10.38;3.53;;;;;;;0.36;54.02;104746.00;5039362;28;20041;-78
2022/03/19 03:50:31;;;;;;;9.75;4.90;;;;;;;0.39;53.78;104751.31;5041336;28;20032;-80
2022/03/19 03:52:57;;;;;;;6.57;3.60;;;;;;;0.26;54.03;104753.13;5042556;28;20072;-79
2022/03/19 03:55:22;;;;;;;12.50;5.13;;;;;;;0.30;53.83;104748.16;5026334;28;20170;-80
2022/03/19 03:57:48;;;;;;;10.18;4.05;;;;;;;0.21;53.74;104744.22;5041845;28;20045;-81
2022/03/19 04:00:15;;;;;;;7.45;3.70;;;;;;;0.26;53.69;104747.97;5023984;28;20143;-80
2022/03/19 04:02:41;;;;;;;10.07;4.78;;;;;;;0.08;53.76;104751.91;5038350;28;20045;-81
2022/03/19 04:05:08;;;;;;;10.38;3.92;;;;;;;-0.01;54.29;104753.88;5039521;28;20087;-79
2022/03/19 04:07:33;;;;;;;12.25;5.40;;;;;;;0.09;54.28;104751.13;5022271;28;20072;-77
2022/03/19 04:09:59;;;;;;;8.30;4.50;;;;;;;0.09;54.10;104747.66;5039630;28;20063;-80
2022/03/19 04:12:25;;;;;;;16.77;4.25;;;;;;;0.05;53.71;104746.56;5037808;28;20048;-82
2022/03/19 04:14:52;;;;;;;12.48;4.10;;;;;;;-0.01;53.56;104741.91;5005096;28;20041;-79
2022/03/19 04:17:18;;;;;;;10.23;3.58;;;;;;;-0.13;53.56;104749.69;5025078;28;20070;-79
2022/03/19 04:19:44;;;;;;;9.05;3.17;;;;;;;-0.08;53.80;104749.09;5038178;28;20256;-80
2022/03/19 04:22:09;;;;;;;6.13;3.22;;;;;;;-0.04;53.74;104751.09;5022992;28;20056;-80
2022/03/19 04:24:35;;;;;;;11.60;4.78;;;;;;;-0.04;53.66;104746.84;5022905;28;20251;-79
2022/03/19 04:27:00;;;;;;;10.80;3.72;;;;;;;-0.16;53.79;104757.19;5037417;28;20044;-80
2022/03/19 04:29:26;;;;;;;8.63;3.90;;;;;;;-0.18;53.70;104751.06;5026507;28;20025;-79
2022/03/19 04:31:51;;;;;;;7.90;3.55;;;;;;;-0.13;53.42;104746.22;5036848;28;20810;-80
2022/03/19 04:34:17;;;;;;;11.18;4.82;;;;;;;-0.22;53.49;104756.78;5024446;28;20607;-80
2022/03/19 04:36:43;;;;;;;6.40;3.78;;;;;;;-0.22;53.55;104756.78;5022671;28;20041;-79
2022/03/19 04:39:09;;;;;;;9.82;4.07;;;;;;;-0.22;53.71;104745.59;5002133;28;20530;-79
2022/03/19 04:41:36;;;;;;;10.07;4.35;;;;;;;-0.23;53.60;104752.44;5023188;28;20161;-78
2022/03/19 04:44:03;;;;;;;9.80;4.70;;;;;;;-0.09;54.14;104744.75;5021795;28;20251;-82
2022/03/19 04:46:29;;;;;;;6.45;3.08;;;;;;;-0.04;54.45;104745.94;5040971;28;20037;-79
2022/03/19 04:48:54;;;;;;;18.33;4.72;;;;;;;0.12;56.53;104751.31;5019817;28;20479;-80
2022/03/19 04:51:24;;;;;;;13.57;5.82;;;;;;;0.49;56.54;104751.13;5043071;28;20044;-80
2022/03/19 04:53:52;;;;;;;9.65;4.65;;;;;;;0.73;55.97;104745.78;5020106;28;20131;-80
2022/03/19 04:56:22;;;;;;;11.38;4.68;;;;;;;0.88;56.07;104744.16;5039313;28;20029;-80
2022/03/19 04:58:49;;;;;;;13.80;5.30;;;;;;;1.01;56.10;104749.28;5019600;28;20049;-79
2022/03/19 05:01:16;;;;;;;18.63;3.83;;;;;;;1.07;55.64;104744.50;5039633;28;20036;-79
2022/03/19 05:03:42;;;;;;;11.38;4.45;;;;;;;1.07;55.50;104748.78;5035567;28;20405;-81
2022/03/19 05:06:07;;;;;;;8.57;4.65;;;;;;;1.05;55.70;104746.09;5022739;28;20041;-81
2022/03/19 05:08:33;;;;;;;16.10;5.70;;;;;;;1.16;55.53;104743.28;5020614;28;20048;-80
2022/03/19 05:11:13;;;;;;;14.23;3.88;;;;;;;1.18;55.35;104745.16;5028596;28;20096;-80
2022/03/19 05:13:44;;;;;;;10.50;4.15;;;;;;;1.31;54.57;104746.81;5037216;28;20041;-78
2022/03/19 05:16:11;;;;;;;8.30;3.70;;;;;;;1.29;54.46;104749.28;5006610;28;20086;-79
2022/03/19 05:18:37;;;;;;;11.35;3.60;;;;;;;1.16;54.33;104748.44;5021035;28;20529;-81
2022/03/19 05:21:03;;;;;;;15.85;4.30;;;;;;;1.06;54.89;104747.88;5038788;28;20354;-81
2022/03/19 05:23:29;;;;;;;11.15;3.63;;;;;;;1.10;54.59;104754.09;5020856;28;20459;-79
2022/03/19 05:25:54;;;;;;;10.85;4.30;;;;;;;1.20;54.88;104753.00;5042287;28;20112;-79
2022/03/19 05:28:20;;;;;;;8.00;3.13;;;;;;;1.19;54.78;104753.78;5024403;28;20047;-79
2022/03/19 05:30:46;;;;;;;15.57;3.33;;;;;;;1.25;53.83;104762.78;5041185;28;20123;-80
2022/03/19 05:33:13;;;;;;;16.20;3.35;;;;;;;1.30;54.06;104745.94;5021943;28;20033;-80
2022/03/19 05:35:39;;;;;;;9.10;2.85;;;;;;;1.22;53.74;104749.72;5037464;28;20035;-81
2022/03/19 05:38:05;;;;;;;14.43;3.42;;;;;;;1.34;53.51;104748.69;5027457;28;20068;-80
2022/03/19 05:40:31;;;;;;;7.72;2.28;;;;;;;1.25;53.15;104754.16;5020361;28;20476;-81
2022/03/19 05:42:57;;;;;;;8.98;3.25;;;;;;;1.37;52.80;104749.75;5041135;28;20049;-80
2022/03/19 05:45:22;;;;;;;6.35;2.17;;;;;;;1.34;52.45;104754.72;5041064;28;20025;-78
2022/03/19 05:47:48;;;;;;;9.90;2.10;;;;;;;1.32;52.48;104756.31;5041025;28;20103;-81
2022/03/19 05:50:15;;;;;;;12.20;2.55;;;;;;;1.49;51.92;104755.69;5021468;28;20399;-80
2022/03/19 05:52:45;;;;;;;9.77;2.40;;;;;;;1.46;51.28;104763.25;5036286;28;20548;-80
2022/03/19 05:55:11;;;;;;;12.05;2.40;;;;;;;1.51;51.38;104764.41;5023970;28;20481;-79
2022/03/19 05:57:37;;;;;;;8.23;2.00;;;;;;;1.54;51.25;104761.13;5041211;28;20045;-78
2022/03/19 06:00:11;;;;;;;6.63;2.60;;;;;;;1.54;51.22;104758.53;5037495;28;20493;-83
2022/03/19 06:02:41;;;;;;;17.52;2.70;;;;;;;1.60;51.17;104763.19;5025324;28;20052;-83
2022/03/19 06:05:08;;;;;;;9.23;2.15;;;;;;;1.60;50.74;104758.91;5023940;28;20040;-83
2022/03/19 06:07:33;;;;;;;13.95;2.85;;;;;;;1.59;50.79;104757.13;5036285;28;20056;-83
2022/03/19 06:09:59;;;;;;;8.68;2.17;;;;;;;1.62;51.07;104761.59;5038417;28;20033;-82
2022/03/19 06:12:25;;;;;;;12.75;2.53;;;;;;;1.62;50.87;104762.47;5020208;28;20481;-82
2022/03/19 06:14:53;;;;;;;10.30;2.60;;;;;;;1.77;50.64;104759.00;5036261;28;20040;-85
2022/03/19 06:17:20;;;;;;;9.20;2.42;;;;;;;1.82;50.39;104758.50;5020259;28;20354;-84
2022/03/19 06:19:45;;;;;;;11.15;2.13;;;;;;;1.88;50.41;104753.69;5021910;28;20135;-82
2022/03/19 06:22:11;;;;;;;7.00;1.60;;;;;;;1.93;50.18;104753.97;5020114;28;20422;-84
2022/03/19 06:24:36;;;;;;;11.48;2.40;;;;;;;3.14;49.11;104752.97;5038098;28;20055;-85
2022/03/19 06:27:03;;;;;;;9.60;1.45;;;;;;;5.65;44.18;104755.56;5034821;28;20033;-81
2022/03/19 06:29:28;;;;;;;10.30;1.10;;;;;;;7.74;39.81;104748.00;5037628;28;20483;-83
2022/03/19 06:31:55;;;;;;;4.68;1.77;;;;;;;9.27;36.76;104748.34;5038993;28;20111;-83
2022/03/19 06:34:20;;;;;;;10.52;1.90;;;;;;;10.54;31.91;104741.91;4999500;28;20037;-82
2022/03/19 06:39:30;;;;;;;6.63;1.80;;;;;;;12.60;29.22;104751.69;5039875;28;20483;-82
2022/03/19 06:41:56;;;;;;;5.35;1.48;;;;;;;13.55;25.30;104745.75;5038736;28;20039;-84
2022/03/19 06:44:22;;;;;;;14.20;2.17;;;;;;;13.95;26.17;104736.44;5019172;28;20108;-84
2022/03/19 06:46:48;;;;;;;8.00;1.63;;;;;;;13.84;26.32;104744.25;5039186;28;20064;-81
2022/03/19 06:49:13;;;;;;;7.32;1.55;;;;;;;14.87;24.81;104746.59;5023977;28;20037;-83
2022/03/19 06:51:40;;;;;;;7.03;2.03;;;;;;;15.47;23.03;104755.53;5037318;28;20048;-82
2022/03/19 06:54:05;;;;;;;7.43;1.13;;;;;;;15.00;24.25;104745.75;5018032;28;20545;-82
2022/03/19 06:56:32;;;;;;;7.60;1.40;;;;;;;14.82;24.04;104743.94;5019439;28;20037;-82
2022/03/19 06:58:58;;;;;;;5.97;1.15;;;;;;;15.24;24.08;104751.97;5037787;28;20052;-84
2022/03/19 07:01:24;;;;;;;4.65;1.48;;;;;;;16.26;22.17;104747.56;5022276;28;20051;-83
2022/03/19 07:03:50;;;;;;;9.75;1.02;;;;;;;17.55;20.28;104744.25;5033866;28;20068;-81
2022/03/19 07:06:18;;;;;;;7.47;1.48;;;;;;;17.00;22.06;104753.41;5023425;28;20127;-81
2022/03/19 07:08:44;;;;;;;4.47;1.10;;;;;;;16.67;20.58;104755.34;5040193;28;20049;-81
2022/03/19 07:11:11;;;;;;;9.23;1.30;;;;;;;16.76;20.28;104747.41;5025195;28;20129;-81
2022/03/19 07:13:37;;;;;;;3.83;1.02;;;;;;;17.09;20.45;104752.47;5036135;28;20056;-79
2022/03/19 07:16:03;;;;;;;6.05;1.60;;;;;;;17.53;19.73;104744.25;5021039;28;20153;-81
2022/03/19 07:18:29;;;;;;;6.90;1.65;;;;;;;17.43;20.79;104753.16;5018400;28;20075;-79
2022/03/19 07:20:54;;;;;;;6.65;1.23;;;;;;;17.54;20.34;104747.81;5022477;28;20565;-80
2022/03/19 07:23:20;;;;;;;6.32;1.50;;;;;;;17.43;19.36;104750.50;5037635;28;20041;-81
2022/03/19 07:25:46;;;;;;;8.82;1.20;;;;;;;16.87;20.61;104754.38;5035229;28;20037;-81
2022/03/19 07:28:15;;;;;;;6.85;0.90;;;;;;;16.56;20.86;104749.22;5034837;28;20053;-79
2022/03/19 07:30:41;;;;;;;7.00;1.20;;;;;;;16.96;21.06;104757.00;5039801;28;20475;-81
2022/03/19 07:33:08;;;;;;;5.22;1.52;;;;;;;17.02;20.62;104749.91;5035684;28;20052;-82
2022/03/19 07:35:35;;;;;;;7.20;1.10;;;;;;;17.65;19.95;104751.22;5023630;28;20041;-80
2022/03/19 07:38:02;;;;;;;3.95;0.95;;;;;;;18.25;20.20;104748.88;5002363;28;20045;-80
2022/03/19 07:43:14;;;;;;;7.60;1.25;;;;;;;18.45;18.78;104747.75;5053047;28;20064;-77
2022/03/19 07:45:41;;;;;;;4.93;0.82;;;;;;;18.34;18.47;104754.94;5064599;28;20546;-78
2022/03/19 07:48:07;;;;;;;6.78;1.13;;;;;;;18.33;19.26;104742.59;5026976;28;20042;-76
2022/03/19 07:50:34;;;;;;;9.52;1.35;;;;;;;17.15;21.19;104749.81;5021318;28;20502;-79
2022/03/19 07:53:00;;;;;;;9.80;1.45;;;;;;;17.79;19.90;104744.03;5036526;28;20482;-77
2022/03/19 07:55:25;;;;;;;7.80;1.20;;;;;;;18.07;20.14;104735.78;5020170;28;20032;-78
2022/03/19 07:57:52;;;;;;;7.80;1.15;;;;;;;17.93;19.53;104733.31;5017718;28;20056;-78
2022/03/19 08:00:18;;;;;;;5.55;1.00;;;;;;;18.85;18.75;104732.22;5040571;28;20071;-80
2022/03/19 08:02:45;;;;;;;3.97;0.98;;;;;;;19.23;18.63;104721.94;5040153;28;20132;-79
2022/03/19 08:05:13;;;;;;;7.15;1.52;;;;;;;18.21;19.74;104725.97;5012166;28;20454;-79
2022/03/19 08:07:39;;;;;;;6.72;1.02;;;;;;;17.65;19.44;104732.72;5044653;28;20421;-80
2022/03/19 08:10:09;;;;;;;4.25;1.38;;;;;;;17.86;20.48;104731.63;5029972;28;20036;-78
2022/03/19 08:12:39;;;;;;;8.02;1.42;;;;;;;18.87;19.61;104727.75;5023382;28;20057;-81
2022/03/19 08:15:07;;;;;;;4.00;1.27;;;;;;;18.91;18.68;104730.41;5028081;28;20033;-79
2022/03/19 08:17:41;;;;;;;6.82;1.38;;;;;;;19.44;18.54;104724.22;5008301;28;20036;-78
2022/03/19 08:20:07;;;;;;;6.70;1.00;;;;;;;18.92;19.19;104722.44;5045179;28;20036;-79
2022/03/19 08:22:33;;;;;;;5.40;0.95;;;;;;;19.07;19.21;104716.84;5028929;28;20033;-79
2022/03/19 08:24:59;;;;;;;7.28;1.00;;;;;;;18.69;19.22;104714.75;5010397;28;20029;-80
2022/03/19 08:27:26;;;;;;;5.97;1.08;;;;;;;18.69;19.53;104720.94;5022536;28;20069;-79
2022/03/19 08:29:52;;;;;;;4.25;0.73;;;;;;;19.12;19.20;104716.78;5008173;28;20032;-79
2022/03/19 08:32:20;;;;;;;7.72;0.95;;;;;;;18.59;19.33;104714.03;5028046;28;20037;-79
2022/03/19 08:34:46;;;;;;;6.47;0.70;;;;;;;17.54;21.00;104719.56;5041790;28;20079;-78
2022/03/19 08:37:12;;;;;;;5.40;1.38;;;;;;;17.47;20.60;104711.66;5028183;28;20036;-80
2022/03/19 08:42:22;;;;;;;4.43;0.50;;;;;;;17.52;20.08;104712.56;5026138;28;20050;-80
2022/03/19 08:44:49;;;;;;;2.38;0.55;;;;;;;16.24;20.45;104710.59;5027131;28;20104;-78
2022/03/19 08:47:16;;;;;;;4.72;0.50;;;;;;;14.91;22.05;104708.88;5048082;28;20910;-79
2022/03/19 08:49:41;;;;;;;2.70;0.60;;;;;;;13.53;23.21;104722.94;5024095;28;20125;-79
2022/03/19 08:52:07;;;;;;;5.50;1.20;;;;;;;13.46;24.16;104715.88;5045303;28;20490;-77
2022/03/19 08:54:33;;;;;;;4.20;0.40;;;;;;;13.64;25.08;104714.31;5039766;28;20041;-78
2022/03/19 08:56:59;;;;;;;8.00;1.52;;;;;;;14.51;24.59;104706.09;5013704;28;20041;-76
2022/03/19 08:59:25;;;;;;;7.20;1.58;;;;;;;14.49;24.50;104713.09;5029355;28;20632;-79
2022/03/19 09:01:52;;;;;;;3.45;0.98;;;;;;;14.70;24.33;104712.28;5042408;28;20051;-81
2022/03/19 09:04:18;;;;;;;8.48;1.23;;;;;;;14.55;25.22;104702.59;5047480;28;20052;-79
2022/03/19 09:06:44;;;;;;;2.90;0.52;;;;;;;13.20;25.60;104697.22;5040600;28;20083;-82
2022/03/19 09:09:13;;;;;;;3.90;0.90;;;;;;;12.58;26.07;104700.91;5039938;28;20029;-77
2022/03/19 09:11:39;;;;;;;4.03;0.45;;;;;;;11.60;27.63;104696.84;5022654;28;20040;-79
2022/03/19 09:14:06;;;;;;;2.83;0.80;;;;;;;11.73;26.76;104690.03;5022009;28;20051;-78
2022/03/19 09:16:33;;;;;;;7.22;0.70;;;;;;;11.65;27.61;104688.19;5027251;28;20021;-78
2022/03/19 09:18:59;;;;;;;9.05;0.80;;;;;;;11.94;27.30;104694.78;5022802;28;20134;-78
2022/03/19 09:21:25;;;;;;;6.05;1.40;;;;;;;11.92;27.15;104686.03;5024284;28;20494;-79
2022/03/19 09:23:51;;;;;;;5.63;1.08;;;;;;;12.34;28.09;104691.00;5039271;28;20379;-78
2022/03/19 09:26:18;;;;;;;7.00;0.63;;;;;;;12.01;27.65;104696.63;5027402;28;20020;-79
2022/03/19 09:28:48;;;;;;;5.38;0.80;;;;;;;12.05;29.35;104694.09;5036743;28;20123;-79
2022/03/19 09:31:16;;;;;;;7.50;0.98;;;;;;;11.95;28.76;104683.44;5019264;28;20039;-79
2022/03/19 09:33:42;;;;;;;7.40;1.45;;;;;;;11.88;28.98;104678.09;5020349;28;20735;-80
2022/03/19 09:36:08;;;;;;;6.22;1.65;;;;;;;11.87;29.10;104678.97;4998688;28;20250;-79
2022/03/19 09:38:34;;;;;;;4.50;0.77;;;;;;;12.04;28.64;104680.94;5017185;28;20049;-80
2022/03/19 09:40:59;;;;;;;6.72;0.98;;;;;;;12.05;27.44;104678.34;5034646;28;20116;-79
2022/03/19 09:43:26;;;;;;;4.90;0.82;;;;;;;12.41;27.64;104684.94;5018827;28;20400;-81
2022/03/19 09:45:52;;;;;;;3.58;0.60;;;;;;;12.01;27.67;104681.78;5023910;28;20222;-78
2022/03/19 09:48:19;;;;;;;4.50;0.98;;;;;;;11.22;29.19;104684.84;5022385;28;20553;-77
2022/03/19 09:50:45;;;;;;;9.60;2.15;;;;;;;11.67;28.72;104675.13;5035727;28;20044;-79
2022/03/19 09:53:12;;;;;;;4.40;0.75;;;;;;;12.57;27.92;104683.41;5021970;28;20506;-78
2022/03/19 09:55:39;;;;;;;4.63;0.80;;;;;;;11.96;28.22;104687.84;5020277;28;20580;-79
2022/03/19 09:58:05;;;;;;;5.72;1.10;;;;;;;11.50;28.56;104672.22;5017139;28;20526;-78
2022/03/19 10:00:31;;;;;;;5.65;1.33;;;;;;;11.64;28.92;104667.19;5019724;28;20037;-77
2022/03/19 10:03:03;;;;;;;4.25;1.55;;;;;;;11.39;29.12;104674.66;5034320;28;20052;-79
2022/03/19 10:08:36;;;;;;;6.45;0.75;;;;;;;11.76;29.23;104667.41;5038440;28;20041;-79
2022/03/19 10:11:03;;;;;;;8.65;0.98;;;;;;;11.96;29.00;104662.50;5043033;28;20118;-81
2022/03/19 10:13:28;;;;;;;7.40;1.17;;;;;;;12.06;28.87;104677.47;5019469;28;20554;-80
2022/03/19 10:15:54;;;;;;;5.72;1.02;;;;;;;11.92;29.80;104665.91;5019244;28;20139;-81
2022/03/19 10:18:31;;;;;;;9.50;1.10;;;;;;;11.72;29.71;104665.59;5023047;28;20037;-79
2022/03/19 10:21:12;;;;;;;9.40;1.70;;;;;;;11.67;29.96;104660.28;5038120;28;20037;-79
2022/03/19 10:23:39;;;;;;;7.00;0.65;;;;;;;11.96;30.23;104657.25;5021534;28;20080;-77
2022/03/19 10:26:05;;;;;;;6.53;0.95;;;;;;;12.16;29.36;104664.53;5037895;28;20056;-78
2022/03/19 10:28:34;;;;;;;5.75;0.73;;;;;;;12.07;29.73;104654.78;5038093;28;20044;-79
2022/03/19 10:31:01;;;;;;;6.60;0.60;;;;;;;11.65;29.60;104653.25;4999922;28;20781;-79
2022/03/19 10:33:30;;;;;;;5.80;0.60;;;;;;;11.61;31.11;104654.06;5018950;28;20454;-79
2022/03/19 10:36:06;;;;;;;7.40;1.42;;;;;;;11.46;31.43;104641.59;5034329;28;20120;-79
2022/03/19 10:38:44;;;;;;;5.70;0.52;;;;;;;11.50;30.75;104635.53;5022101;28;20825;-78
2022/03/19 10:41:11;;;;;;;10.05;1.35;;;;;;;11.43;31.03;104634.56;5017503;28;20029;-79
2022/03/19 10:43:38;;;;;;;9.00;0.90;;;;;;;11.45;30.90;104632.84;5035429;28;20048;-78
2022/03/19 10:46:04;;;;;;;6.32;0.82;;;;;;;11.61;30.83;104631.34;5020433;28;20033;-79
2022/03/19 10:48:30;;;;;;;8.20;1.25;;;;;;;11.57;31.21;104631.28;5042599;28;20168;-79
2022/03/19 10:51:01;;;;;;;8.85;0.95;;;;;;;11.86;31.16;104635.25;5020256;28;20029;-79
2022/03/19 10:53:27;;;;;;;6.78;1.25;;;;;;;11.75;31.22;104634.16;5003146;28;20036;-78
2022/03/19 10:55:53;;;;;;;4.90;0.90;;;;;;;11.75;31.53;104628.94;5014484;28;20237;-78
2022/03/19 10:58:19;;;;;;;5.18;1.00;;;;;;;11.96;30.97;104631.03;5029224;28;20107;-78
2022/03/19 11:00:50;;;;;;;3.58;0.75;;;;;;;12.16;30.79;104623.44;5040119;28;20632;-79
2022/03/19 11:03:34;;;;;;;11.05;1.30;;;;;;;12.17;30.79;104617.31;4997765;28;20148;-80
2022/03/19 11:06:07;;;;;;;4.88;0.80;;;;;;;11.92;31.01;104617.88;5023622;28;20041;-81
2022/03/19 11:08:44;;;;;;;9.48;1.10;;;;;;;11.88;30.64;104617.78;5042387;28;20109;-78
2022/03/19 11:11:35;;;;;;;3.45;0.50;;;;;;;11.99;30.63;104614.47;5039899;28;20099;-80
2022/03/19 11:14:02;;;;;;;5.25;0.40;;;;;;;11.79;30.26;104606.31;5033507;28;20107;-77
2022/03/19 11:16:32;;;;;;;7.47;0.75;;;;;;;11.76;30.86;104607.13;5024015;28;20036;-80
2022/03/19 11:19:00;;;;;;;8.10;1.00;;;;;;;12.06;29.83;104597.94;5020974;28;20395;-78
2022/03/19 11:21:28;;;;;;;7.72;0.82;;;;;;;12.35;29.04;104600.91;5027224;28;20498;-79
2022/03/19 11:24:19;;;;;;;2.63;0.98;;;;;;;12.55;29.79;104595.91;5015127;28;20518;-80
2022/03/19 11:26:44;;;;;;;5.57;0.73;;;;;;;12.02;29.82;104589.16;5010502;28;20124;-80
2022/03/19 11:29:11;;;;;;;1.75;1.00;;;;;;;12.53;29.20;104583.63;5030571;28;20052;-79
2022/03/19 11:31:36;;;;;;;6.03;0.43;;;;;;;11.74;30.45;104576.50;5016418;28;20782;-81
2022/03/19 11:34:17;;;;;;;4.47;0.52;;;;;;;11.81;30.23;104584.50;5034067;28;20048;-79
2022/03/19 11:37:02;;;;;;;3.72;0.57;;;;;;;11.92;30.42;104587.28;5006431;28;20366;-80
2022/03/19 11:39:27;;;;;;;7.88;0.82;;;;;;;12.43;30.01;104570.41;5043347;28;20049;-79
2022/03/19 11:41:53;;;;;;;3.25;0.40;;;;;;;12.42;29.46;104565.13;5026311;28;20040;-82